Time;durP1;ratioP1;P1;durP2;ratioP2;P2;SDS_P1;SDS_P2;PMS_P1;PMS_P2;Temp;Humidity;BMP_temperature;BMP_pressure;BME280_temperature;BME280_humidity;BME280_pressure;Samples;Min_cycle;Max_cycle;Signal;HPM_P1;HPM_P2
2022/07/03 00:00:52;;;;;;;;;;;;;;;;;;5053189;28;19909;-79
2022/07/03 00:03:39;;;;;;;;;;;;;;;;;;5054491;28;19923;-80
2022/07/03 00:06:26;;;;;;;;;;;;;;;;;;5052916;28;19929;-79
2022/07/03 00:09:12;;;;;;;;;;;;;;;;;;5053356;28;19919;-80
2022/07/03 00:11:59;;;;;;;;;;;;;;;;;;5055314;28;19913;-80
2022/07/03 00:14:45;;;;;;;;;;;;;;;;;;5071015;28;20295;-80
2022/07/03 00:17:32;;;;;;;;;;;;;;;;;;5047434;28;19908;-80
2022/07/03 00:20:18;;;;;;;;;;;;;;;;;;5054930;28;19909;-80
2022/07/03 00:23:05;;;;;;;;;;;;;;;;;;5062659;28;20285;-80
2022/07/03 00:25:51;;;;;;;;;;;;;;;;;;5063690;28;19916;-79
2022/07/03 00:28:38;;;;;;;;;;;;;;;;;;5060866;28;19915;-78
2022/07/03 00:31:24;;;;;;;;;;;;;;;;;;5057530;28;19908;-78
2022/07/03 00:34:10;;;;;;;;;;;;;;;;;;5055881;28;19916;-78
2022/07/03 00:36:57;;;;;;;;;;;;;;;;;;5061956;28;20380;-79
2022/07/03 00:39:43;;;;;;;;;;;;;;;;;;5060357;28;19923;-77
2022/07/03 00:42:30;;;;;;;;;;;;;;;;;;5051935;28;20483;-78
2022/07/03 00:45:17;;;;;;;;;;;;;;;;;;5058823;28;19916;-78
2022/07/03 00:48:03;;;;;;;;;;;;;;;;;;5069229;28;19919;-78
2022/07/03 00:50:49;;;;;;;;;;;;;;;;;;5067455;28;20407;-77
2022/07/03 00:53:36;;;;;;;;;;;;;;;;;;5057212;28;19927;-81
2022/07/03 00:56:23;;;;;;;;;;;;;;;;;;5064488;28;20281;-79
2022/07/03 00:59:09;;;;;;;;;;;;;;;;;;5057096;28;19920;-79
2022/07/03 01:01:56;;;;;;;;;;;;;;;;;;5065157;28;19916;-78
2022/07/03 01:04:42;;;;;;;;;;;;;;;;;;5057241;28;20304;-79
2022/07/03 01:07:29;;;;;;;;;;;;;;;;;;5056845;28;20289;-79
2022/07/03 01:10:15;;;;;;;;;;;;;;;;;;5058644;28;19979;-78
2022/07/03 01:13:02;;;;;;;;;;;;;;;;;;5052799;28;20359;-79
2022/07/03 01:15:48;;;;;;;;;;;;;;;;;;5061280;28;19923;-79
2022/07/03 01:18:35;;;;;;;;;;;;;;;;;;5068197;28;19915;-79
2022/07/03 01:21:22;;;;;;;;;;;;;;;;;;5051072;28;19909;-79
2022/07/03 01:24:08;;;;;;;;;;;;;;;;;;5061217;28;20292;-80
2022/07/03 01:26:55;;;;;;;;;;;;;;;;;;5058919;28;19909;-81
2022/07/03 01:29:41;;;;;;;;;;;;;;;;;;5053610;28;20253;-80
2022/07/03 01:32:27;;;;;;;;;;;;;;;;;;5058652;28;19920;-78
2022/07/03 01:35:14;;;;;;;;;;;;;;;;;;5058314;28;19917;-78
2022/07/03 01:38:00;;;;;;;;;;;;;;;;;;5067688;28;19919;-79
2022/07/03 01:40:47;;;;;;;;;;;;;;;;;;5066001;28;19909;-79
2022/07/03 01:43:33;;;;;;;;;;;;;;;;;;5057065;28;19925;-79
2022/07/03 01:46:20;;;;;;;;;;;;;;;;;;5064566;28;19913;-79
2022/07/03 01:49:06;;;;;;;;;;;;;;;;;;5067233;28;19908;-80
2022/07/03 01:51:53;;;;;;;;;;;;;;;;;;5074395;28;19916;-79
2022/07/03 01:54:39;;;;;;;;;;;;;;;;;;5067852;28;19920;-79
2022/07/03 01:57:26;;;;;;;;;;;;;;;;;;5064265;28;20399;-79
2022/07/03 02:00:12;;;;;;;;;;;;;;;;;;5070235;28;19912;-79
2022/07/03 02:02:59;;;;;;;;;;;;;;;;;;5047500;28;20369;-79
2022/07/03 02:05:45;;;;;;;;;;;;;;;;;;5056791;28;19923;-79
2022/07/03 02:08:32;;;;;;;;;;;;;;;;;;5067819;28;19939;-79
2022/07/03 02:11:18;;;;;;;;;;;;;;;;;;5053185;28;19908;-79
2022/07/03 02:14:04;;;;;;;;;;;;;;;;;;5040133;28;19928;-78
2022/07/03 02:16:51;;;;;;;;;;;;;;;;;;5053057;28;19908;-78
2022/07/03 02:19:38;;;;;;;;;;;;;;;;;;5069500;28;19908;-78
2022/07/03 02:22:24;;;;;;;;;;;;;;;;;;5064830;28;19928;-78
2022/07/03 02:25:11;;;;;;;;;;;;;;;;;;5065946;28;19912;-78
2022/07/03 02:27:57;;;;;;;;;;;;;;;;;;5040307;28;19913;-79
2022/07/03 02:30:44;;;;;;;;;;;;;;;;;;5049110;28;19912;-78
2022/07/03 02:33:30;;;;;;;;;;;;;;;;;;5054310;28;19927;-79
2022/07/03 02:36:16;;;;;;;;;;;;;;;;;;5051006;28;20439;-80
2022/07/03 02:39:03;;;;;;;;;;;;;;;;;;5056060;28;19917;-79
2022/07/03 02:41:49;;;;;;;;;;;;;;;;;;5065766;28;19916;-78
2022/07/03 02:44:36;;;;;;;;;;;;;;;;;;5063579;28;20329;-78
2022/07/03 02:47:22;;;;;;;;;;;;;;;;;;5065151;28;19916;-79
2022/07/03 02:50:09;;;;;;;;;;;;;;;;;;5067895;28;19942;-78
2022/07/03 02:52:55;;;;;;;;;;;;;;;;;;5066256;28;19960;-78
2022/07/03 02:55:42;;;;;;;;;;;;;;;;;;5060506;28;19916;-78
2022/07/03 02:58:29;;;;;;;;;;;;;;;;;;5053577;28;19909;-79
2022/07/03 03:01:15;;;;;;;;;;;;;;;;;;5048985;28;19916;-80
2022/07/03 03:04:02;;;;;;;;;;;;;;;;;;5064211;28;19951;-79
2022/07/03 03:06:49;;;;;;;;;;;;;;;;;;5065941;28;19928;-79
2022/07/03 03:09:35;;;;;;;;;;;;;;;;;;5060681;28;19908;-79
2022/07/03 03:12:22;;;;;;;;;;;;;;;;;;5058035;28;19915;-79
2022/07/03 03:15:09;;;;;;;;;;;;;;;;;;5062957;28;20396;-78
2022/07/03 03:17:55;;;;;;;;;;;;;;;;;;5063540;28;19915;-77
2022/07/03 03:20:42;;;;;;;;;;;;;;;;;;5065236;28;20299;-77
2022/07/03 03:23:28;;;;;;;;;;;;;;;;;;5057578;28;19915;-78
2022/07/03 03:26:15;;;;;;;;;;;;;;;;;;5040772;28;20288;-78
2022/07/03 03:29:01;;;;;;;;;;;;;;;;;;5056279;28;19913;-78
2022/07/03 03:31:47;;;;;;;;;;;;;;;;;;5056664;28;20288;-78
2022/07/03 03:34:34;;;;;;;;;;;;;;;;;;5077063;28;19923;-79
2022/07/03 03:37:20;;;;;;;;;;;;;;;;;;5070727;28;20403;-78
2022/07/03 03:40:07;;;;;;;;;;;;;;;;;;5064457;28;19909;-77
2022/07/03 03:42:53;;;;;;;;;;;;;;;;;;5071571;28;19915;-78
2022/07/03 03:45:40;;;;;;;;;;;;;;;;;;5058940;28;19912;-78
2022/07/03 03:48:26;;;;;;;;;;;;;;;;;;5065425;28;19995;-79
2022/07/03 03:51:13;;;;;;;;;;;;;;;;;;5068159;28;19909;-78
2022/07/03 03:53:59;;;;;;;;;;;;;;;;;;5060542;28;20321;-78
2022/07/03 03:56:46;;;;;;;;;;;;;;;;;;5060737;28;19922;-78
2022/07/03 03:59:32;;;;;;;;;;;;;;;;;;5062575;28;19909;-78
2022/07/03 04:02:19;;;;;;;;;;;;;;;;;;5062185;28;19974;-78
2022/07/03 04:05:05;;;;;;;;;;;;;;;;;;5048627;28;19909;-79
2022/07/03 04:07:51;;;;;;;;;;;;;;;;;;5056468;28;19927;-79
2022/07/03 04:10:38;;;;;;;;;;;;;;;;;;5041241;28;19932;-79
2022/07/03 04:13:24;;;;;;;;;;;;;;;;;;5054361;28;19919;-79
2022/07/03 04:16:11;;;;;;;;;;;;;;;;;;5055415;28;20301;-79
2022/07/03 04:18:57;;;;;;;;;;;;;;;;;;5068767;28;19909;-78
2022/07/03 04:21:44;;;;;;;;;;;;;;;;;;5060587;28;19930;-78
2022/07/03 04:24:30;;;;;;;;;;;;;;;;;;5070071;28;19924;-78
2022/07/03 04:27:17;;;;;;;;;;;;;;;;;;5062975;28;20142;-78
2022/07/03 04:30:03;;;;;;;;;;;;;;;;;;5063155;28;19913;-77
2022/07/03 04:32:50;;;;;;;;;;;;;;;;;;5068157;28;19908;-78
2022/07/03 04:35:38;;;;;;;;;;;;;;;;;;5054884;28;19921;-78
2022/07/03 04:38:24;;;;;;;;;;;;;;;;;;5052342;28;19913;-78
2022/07/03 04:41:11;;;;;;;;;;;;;;;;;;5069441;28;19917;-78
2022/07/03 04:43:57;;;;;;;;;;;;;;;;;;5059581;28;19913;-79
2022/07/03 04:46:44;;;;;;;;;;;;;;;;;;5050189;28;19908;-79
2022/07/03 04:49:30;;;;;;;;;;;;;;;;;;5061789;28;19912;-79
2022/07/03 04:52:17;;;;;;;;;;;;;;;;;;5062222;28;19908;-79
2022/07/03 04:55:04;;;;;;;;;;;;;;;;;;5042885;28;19921;-80
2022/07/03 04:57:50;;;;;;;;;;;;;;;;;;5053795;28;19919;-79
2022/07/03 05:00:36;;;;;;;;;;;;;;;;;;5071045;28;19938;-79
2022/07/03 05:03:23;;;;;;;;;;;;;;;;;;5067939;28;19909;-79
2022/07/03 05:06:09;;;;;;;;;;;;;;;;;;5064264;28;20288;-79
2022/07/03 05:08:56;;;;;;;;;;;;;;;;;;5055914;28;19927;-79
2022/07/03 05:11:42;;;;;;;;;;;;;;;;;;5063686;28;19915;-79
2022/07/03 05:14:29;;;;;;;;;;;;;;;;;;5061378;28;19940;-79
2022/07/03 05:17:15;;;;;;;;;;;;;;;;;;5065087;28;20280;-79
2022/07/03 05:23:07;;;;;;;;;;;;;;;;;;5054999;28;20276;-79
2022/07/03 05:25:55;;;;;;;;;;;;;;;;;;5051134;28;19916;-79
2022/07/03 05:28:41;;;;;;;;;;;;;;;;;;5066650;28;20336;-79
2022/07/03 05:31:28;;;;;;;;;;;;;;;;;;5065263;28;19909;-80
2022/07/03 05:34:14;;;;;;;;;;;;;;;;;;5053631;28;20206;-78
2022/07/03 05:37:01;;;;;;;;;;;;;;;;;;5049139;28;19916;-79
2022/07/03 05:39:47;;;;;;;;;;;;;;;;;;5065579;28;19935;-79
2022/07/03 05:42:33;;;;;;;;;;;;;;;;;;5062004;28;19908;-79
2022/07/03 05:45:20;;;;;;;;;;;;;;;;;;5062387;28;19919;-78
2022/07/03 05:48:06;;;;;;;;;;;;;;;;;;5043232;28;19915;-79
2022/07/03 05:50:53;;;;;;;;;;;;;;;;;;5046150;28;20324;-78
2022/07/03 05:53:39;;;;;;;;;;;;;;;;;;5054855;28;20381;-78
2022/07/03 05:56:26;;;;;;;;;;;;;;;;;;5064117;28;19923;-78
2022/07/03 05:59:12;;;;;;;;;;;;;;;;;;5051447;28;19908;-78
2022/07/03 06:01:59;;;;;;;;;;;;;;;;;;5063036;28;20045;-79
2022/07/03 06:04:45;;;;;;;;;;;;;;;;;;5062230;28;19923;-79
2022/07/03 06:07:32;;;;;;;;;;;;;;;;;;5060390;28;20300;-79
2022/07/03 06:10:20;;;;;;;;;;;;;;;;;;5064089;28;22109;-79
2022/07/03 06:13:08;;;;;;;;;;;;;;;;;;5068826;28;19912;-79
2022/07/03 06:15:54;;;;;;;;;;;;;;;;;;5049598;28;19917;-78
2022/07/03 06:18:41;;;;;;;;;;;;;;;;;;5067481;28;20222;-78
2022/07/03 06:21:27;;;;;;;;;;;;;;;;;;5039204;28;20003;-78
2022/07/03 06:24:13;;;;;;;;;;;;;;;;;;5047749;28;20253;-76
2022/07/03 06:27:00;;;;;;;;;;;;;;;;;;5048688;28;19916;-80
2022/07/03 06:29:46;;;;;;;;;;;;;;;;;;5053862;28;20383;-79
2022/07/03 06:32:33;;;;;;;;;;;;;;;;;;5050044;28;19913;-78
2022/07/03 06:35:19;;;;;;;;;;;;;;;;;;5051065;28;20254;-78
2022/07/03 06:38:06;;;;;;;;;;;;;;;;;;5059547;28;19934;-78
2022/07/03 06:40:52;;;;;;;;;;;;;;;;;;5065260;28;19909;-78
2022/07/03 06:43:39;;;;;;;;;;;;;;;;;;5065068;28;19920;-78
2022/07/03 06:46:25;;;;;;;;;;;;;;;;;;5060461;28;19920;-80
2022/07/03 06:49:12;;;;;;;;;;;;;;;;;;5054220;28;19917;-81
2022/07/03 06:51:58;;;;;;;;;;;;;;;;;;5050390;28;20380;-82
2022/07/03 06:54:45;;;;;;;;;;;;;;;;;;5059607;28;19921;-82
2022/07/03 06:57:31;;;;;;;;;;;;;;;;;;5058302;28;19924;-81
2022/07/03 07:00:17;;;;;;;;;;;;;;;;;;5053896;28;20669;-81
2022/07/03 07:03:04;;;;;;;;;;;;;;;;;;5056426;28;19924;-83
2022/07/03 07:05:50;;;;;;;;;;;;;;;;;;5055071;28;20292;-78
2022/07/03 07:08:37;;;;;;;;;;;;;;;;;;5056198;28;19927;-82
2022/07/03 07:11:23;;;;;;;;;;;;;;;;;;5056858;28;19934;-82
2022/07/03 07:14:10;;;;;;;;;;;;;;;;;;5062540;28;19917;-83
2022/07/03 07:16:59;;;;;;;;;;;;;;;;;;5066158;28;20295;-80
2022/07/03 07:19:46;;;;;;;;;;;;;;;;;;5044872;28;19919;-80
2022/07/03 07:22:32;;;;;;;;;;;;;;;;;;5059726;28;19915;-80
2022/07/03 07:25:20;;;;;;;;;;;;;;;;;;5041194;28;19909;-81
2022/07/03 07:28:06;;;;;;;;;;;;;;;;;;5058781;28;19909;-80
2022/07/03 07:30:57;;;;;;;;;;;;;;;;;;5059144;28;19919;-81
2022/07/03 07:33:43;;;;;;;;;;;;;;;;;;5049758;28;19916;-80
2022/07/03 07:36:30;;;;;;;;;;;;;;;;;;5058883;28;19926;-80
2022/07/03 07:39:16;;;;;;;;;;;;;;;;;;5054032;28;19916;-79
2022/07/03 07:42:03;;;;;;;;;;;;;;;;;;5058293;28;19915;-75
2022/07/03 07:44:49;;;;;;;;;;;;;;;;;;5060464;28;20551;-75
2022/07/03 07:47:36;;;;;;;;;;;;;;;;;;5060270;28;19923;-77
2022/07/03 07:50:22;;;;;;;;;;;;;;;;;;5051936;28;20369;-76
2022/07/03 07:53:09;;;;;;;;;;;;;;;;;;5056583;28;19913;-76
2022/07/03 07:55:55;;;;;;;;;;;;;;;;;;5048672;28;20384;-74
2022/07/03 07:58:42;;;;;;;;;;;;;;;;;;5057534;28;19920;-74
2022/07/03 08:07:38;;;;;;;;;;;;;;;;;;5063118;28;20357;-75
2022/07/03 08:10:25;;;;;;;;;;;;;;;;;;5054847;28;19912;-75
2022/07/03 08:13:11;;;;;;;;;;;;;;;;;;5058630;28;19924;-75
2022/07/03 08:15:58;;;;;;;;;;;;;;;;;;5056849;28;20298;-74
2022/07/03 08:18:44;;;;;;;;;;;;;;;;;;5064345;28;19915;-73
2022/07/03 08:21:31;;;;;;;;;;;;;;;;;;5057571;28;20400;-77
2022/07/03 08:24:18;;;;;;;;;;;;;;;;;;5069167;28;20372;-77
2022/07/03 08:27:04;;;;;;;;;;;;;;;;;;5067513;28;19916;-77
2022/07/03 08:29:51;;;;;;;;;;;;;;;;;;5060039;28;19909;-77
2022/07/03 08:32:37;;;;;;;;;;;;;;;;;;5056126;28;20319;-77
2022/07/03 08:35:24;;;;;;;;;;;;;;;;;;5061104;28;19917;-77
2022/07/03 08:38:10;;;;;;;;;;;;;;;;;;5053617;28;19932;-76
2022/07/03 08:40:57;;;;;;;;;;;;;;;;;;5061724;28;19936;-76
2022/07/03 08:43:43;;;;;;;;;;;;;;;;;;5058530;28;19920;-76
2022/07/03 08:46:30;;;;;;;;;;;;;;;;;;5055490;28;20001;-76
2022/07/03 08:49:16;;;;;;;;;;;;;;;;;;5062612;28;19912;-76
2022/07/03 08:52:03;;;;;;;;;;;;;;;;;;5052944;28;19909;-77
2022/07/03 08:54:50;;;;;;;;;;;;;;;;;;5055653;28;19923;-76
2022/07/03 08:57:36;;;;;;;;;;;;;;;;;;5050033;28;20266;-77
2022/07/03 09:00:23;;;;;;;;;;;;;;;;;;5036324;28;20288;-76
2022/07/03 09:03:09;;;;;;;;;;;;;;;;;;5063667;28;19919;-76
2022/07/03 09:05:56;;;;;;;;;;;;;;;;;;5059650;28;19939;-76
2022/07/03 09:08:42;;;;;;;;;;;;;;;;;;5055859;28;20377;-76
2022/07/03 09:11:29;;;;;;;;;;;;;;;;;;5053201;28;20416;-76
2022/07/03 09:14:15;;;;;;;;;;;;;;;;;;5051405;28;19909;-77
2022/07/03 09:17:02;;;;;;;;;;;;;;;;;;5068304;28;19924;-76
2022/07/03 09:19:48;;;;;;;;;;;;;;;;;;5069165;28;19918;-76
2022/07/03 09:22:35;;;;;;;;;;;;;;;;;;5056374;28;19914;-76
2022/07/03 09:25:21;;;;;;;;;;;;;;;;;;5044396;28;19913;-76
2022/07/03 09:28:07;;;;;;;;;;;;;;;;;;5064750;28;19909;-76
2022/07/03 09:30:54;;;;;;;;;;;;;;;;;;5064405;28;19915;-76
2022/07/03 09:33:40;;;;;;;;;;;;;;;;;;5061133;28;20535;-76
2022/07/03 09:36:27;;;;;;;;;;;;;;;;;;5056495;28;19931;-76
2022/07/03 09:39:13;;;;;;;;;;;;;;;;;;5061280;28;20284;-76
2022/07/03 09:42:00;;;;;;;;;;;;;;;;;;5080729;28;19929;-76
2022/07/03 09:44:46;;;;;;;;;;;;;;;;;;5056118;28;19912;-77
2022/07/03 09:47:34;;;;;;;;;;;;;;;;;;5058447;28;19909;-77
2022/07/03 09:50:20;;;;;;;;;;;;;;;;;;5071351;28;20466;-76
2022/07/03 09:53:07;;;;;;;;;;;;;;;;;;5058184;28;19909;-78
2022/07/03 09:55:53;;;;;;;;;;;;;;;;;;5058232;28;20284;-76
2022/07/03 09:58:40;;;;;;;;;;;;;;;;;;5064283;28;19916;-76
2022/07/03 10:01:26;;;;;;;;;;;;;;;;;;5061288;28;19913;-77
2022/07/03 10:04:13;;;;;;;;;;;;;;;;;;5044828;28;20287;-76
2022/07/03 10:06:59;;;;;;;;;;;;;;;;;;5062319;28;19943;-77
2022/07/03 10:09:46;;;;;;;;;;;;;;;;;;5034681;28;20355;-77
2022/07/03 10:12:32;;;;;;;;;;;;;;;;;;5057434;28;19920;-76
2022/07/03 10:15:19;;;;;;;;;;;;;;;;;;5065791;28;20399;-76
2022/07/03 10:18:05;;;;;;;;;;;;;;;;;;5051462;28;19909;-76
2022/07/03 10:20:52;;;;;;;;;;;;;;;;;;5068074;28;20334;-76
2022/07/03 10:23:38;;;;;;;;;;;;;;;;;;5060758;28;19951;-76
2022/07/03 10:26:25;;;;;;;;;;;;;;;;;;5047047;28;20272;-76
2022/07/03 10:29:15;;;;;;;;;;;;;;;;;;5061879;28;19917;-76
2022/07/03 10:32:02;;;;;;;;;;;;;;;;;;5062562;28;20364;-76
2022/07/03 10:34:48;;;;;;;;;;;;;;;;;;5054620;28;19920;-77
2022/07/03 10:37:34;;;;;;;;;;;;;;;;;;5067433;28;20284;-76
2022/07/03 10:46:31;;;;;;;;;;;;;;;;;;5057884;28;19917;-77
2022/07/03 10:49:18;;;;;;;;;;;;;;;;;;5066003;28;19963;-77
2022/07/03 10:52:06;;;;;;;;;;;;;;;;;;5068685;28;19912;-77
2022/07/03 10:54:53;;;;;;;;;;;;;;;;;;5056451;28;20415;-77
2022/07/03 10:57:39;;;;;;;;;;;;;;;;;;5044823;28;19919;-76
2022/07/03 11:00:26;;;;;;;;;;;;;;;;;;5051732;28;19919;-76
2022/07/03 11:03:12;;;;;;;;;;;;;;;;;;5053388;28;20384;-77
2022/07/03 11:05:59;;;;;;;;;;;;;;;;;;5062655;28;19914;-77
2022/07/03 11:08:45;;;;;;;;;;;;;;;;;;5065778;28;19940;-77
2022/07/03 11:14:37;;;;;;;;;;;;;;;;;;5070916;28;19912;-76
2022/07/03 11:17:23;;;;;;;;;;;;;;;;;;5063197;28;19908;-76
2022/07/03 11:20:25;;;;;;;;;;;;;;;;;;5064081;28;19923;-77
2022/07/03 11:23:11;;;;;;;;;;;;;;;;;;5060464;28;19908;-76
2022/07/03 11:25:58;;;;;;;;;;;;;;;;;;5068090;28;19909;-77
2022/07/03 11:28:44;;;;;;;;;;;;;;;;;;5056341;28;20285;-76
2022/07/03 11:31:30;;;;;;;;;;;;;;;;;;5059151;28;19920;-76
2022/07/03 11:34:17;;;;;;;;;;;;;;;;;;5034756;28;20355;-76
2022/07/03 11:37:03;;;;;;;;;;;;;;;;;;5061487;28;19916;-76
2022/07/03 11:39:50;;;;;;;;;;;;;;;;;;5067783;28;19923;-77
2022/07/03 11:42:36;;;;;;;;;;;;;;;;;;5067882;28;19920;-76
2022/07/03 11:45:24;;;;;;;;;;;;;;;;;;5066894;28;19917;-77
2022/07/03 11:48:10;;;;;;;;;;;;;;;;;;5064632;28;19912;-72
2022/07/03 11:50:57;;;;;;;;;;;;;;;;;;5068128;28;19936;-75
2022/07/03 11:53:43;;;;;;;;;;;;;;;;;;5057777;28;20373;-75
2022/07/03 11:56:30;;;;;;;;;;;;;;;;;;5053818;28;19944;-74
2022/07/03 11:59:17;;;;;;;;;;;;;;;;;;5067608;28;20364;-75
2022/07/03 12:02:03;;;;;;;;;;;;;;;;;;5056336;28;19916;-74
2022/07/03 12:04:50;;;;;;;;;;;;;;;;;;5057052;28;19916;-74
2022/07/03 12:07:36;;;;;;;;;;;;;;;;;;5054863;28;20525;-74
2022/07/03 12:10:22;;;;;;;;;;;;;;;;;;5055210;28;19927;-74
2022/07/03 12:13:09;;;;;;;;;;;;;;;;;;5056094;28;19916;-74
2022/07/03 12:15:55;;;;;;;;;;;;;;;;;;5053006;28;19921;-73
2022/07/03 12:18:42;;;;;;;;;;;;;;;;;;5055815;28;19951;-74
2022/07/03 12:21:29;;;;;;;;;;;;;;;;;;5054394;28;19916;-74
2022/07/03 12:24:15;;;;;;;;;;;;;;;;;;5052395;28;19912;-74
2022/07/03 12:27:02;;;;;;;;;;;;;;;;;;5052474;28;19909;-73
2022/07/03 12:29:48;;;;;;;;;;;;;;;;;;5053949;28;20571;-74
2022/07/03 12:32:35;;;;;;;;;;;;;;;;;;5049160;28;19915;-74
2022/07/03 12:35:21;;;;;;;;;;;;;;;;;;5051057;28;20047;-74
2022/07/03 12:38:08;;;;;;;;;;;;;;;;;;5053725;28;19915;-73
2022/07/03 12:40:54;;;;;;;;;;;;;;;;;;5061465;28;19913;-78
2022/07/03 12:43:41;;;;;;;;;;;;;;;;;;5057098;28;19917;-76
2022/07/03 12:46:28;;;;;;;;;;;;;;;;;;5055449;28;20011;-78
2022/07/03 12:49:14;;;;;;;;;;;;;;;;;;5046837;28;19915;-76
2022/07/03 12:52:01;;;;;;;;;;;;;;;;;;5057630;28;20479;-76
2022/07/03 12:54:47;;;;;;;;;;;;;;;;;;5045283;28;19923;-76
2022/07/03 13:00:39;;;;;;;;;;;;;;;;;;5053497;28;20390;-77
2022/07/03 13:03:25;;;;;;;;;;;;;;;;;;5068106;28;19916;-77
2022/07/03 13:06:11;;;;;;;;;;;;;;;;;;5067828;28;19908;-77
2022/07/03 13:08:58;;;;;;;;;;;;;;;;;;5064626;28;19927;-77
2022/07/03 13:11:45;;;;;;;;;;;;;;;;;;5068208;28;19908;-76
2022/07/03 13:14:31;;;;;;;;;;;;;;;;;;5054081;28;19908;-76
2022/07/03 13:17:17;;;;;;;;;;;;;;;;;;5050946;28;19909;-76
2022/07/03 13:20:04;;;;;;;;;;;;;;;;;;5064670;28;20368;-76
2022/07/03 13:22:50;;;;;;;;;;;;;;;;;;5064202;28;19942;-76
2022/07/03 13:25:42;;;;;;;;;;;;;;;;;;5062294;28;19909;-76
2022/07/03 13:28:29;;;;;;;;;;;;;;;;;;5065832;28;19924;-77
2022/07/03 13:31:15;;;;;;;;;;;;;;;;;;5052113;28;19927;-77
2022/07/03 13:34:02;;;;;;;;;;;;;;;;;;5067308;28;19909;-77
2022/07/03 13:36:49;;;;;;;;;;;;;;;;;;5054486;28;19924;-75
2022/07/03 13:39:35;;;;;;;;;;;;;;;;;;5058730;28;19934;-76
2022/07/03 13:42:22;;;;;;;;;;;;;;;;;;5056214;28;19909;-76
2022/07/03 13:45:08;;;;;;;;;;;;;;;;;;5066061;28;20361;-75
2022/07/03 13:47:55;;;;;;;;;;;;;;;;;;5056870;28;19909;-75
2022/07/03 13:50:41;;;;;;;;;;;;;;;;;;5060609;28;19916;-76
2022/07/03 13:53:28;;;;;;;;;;;;;;;;;;5055761;28;20371;-77
2022/07/03 13:56:15;;;;;;;;;;;;;;;;;;5062160;28;19924;-76
2022/07/03 13:59:01;;;;;;;;;;;;;;;;;;5059683;28;20475;-76
2022/07/03 14:01:48;;;;;;;;;;;;;;;;;;5045614;28;19908;-76
2022/07/03 14:04:34;;;;;;;;;;;;;;;;;;5060350;28;19917;-76
2022/07/03 14:07:21;;;;;;;;;;;;;;;;;;5058628;28;20513;-77
2022/07/03 14:10:07;;;;;;;;;;;;;;;;;;5066701;28;19923;-77
2022/07/03 14:12:54;;;;;;;;;;;;;;;;;;5069781;28;19912;-77
2022/07/03 14:15:40;;;;;;;;;;;;;;;;;;5060214;28;19920;-77
2022/07/03 14:18:27;;;;;;;;;;;;;;;;;;5057516;28;19913;-79
2022/07/03 14:21:13;;;;;;;;;;;;;;;;;;5061109;28;20114;-78
2022/07/03 14:23:59;;;;;;;;;;;;;;;;;;5061566;28;19913;-78
2022/07/03 14:32:57;;;;;;;;;;;;;;;;;;5059582;28;19919;-78
2022/07/03 14:35:43;;;;;;;;;;;;;;;;;;5059536;28;19921;-78
2022/07/03 14:38:30;;;;;;;;;;;;;;;;;;5060934;28;19912;-78
2022/07/03 14:41:16;;;;;;;;;;;;;;;;;;5063987;28;19918;-78
2022/07/03 14:44:03;;;;;;;;;;;;;;;;;;5065912;28;19919;-78
2022/07/03 14:46:49;;;;;;;;;;;;;;;;;;5070547;28;19920;-79
2022/07/03 14:49:36;;;;;;;;;;;;;;;;;;5063300;28;19913;-79
2022/07/03 14:52:22;;;;;;;;;;;;;;;;;;5063523;28;19916;-78
2022/07/03 14:55:10;;;;;;;;;;;;;;;;;;5053297;28;19913;-80
2022/07/03 14:57:57;;;;;;;;;;;;;;;;;;5063300;28;19916;-81
2022/07/03 15:00:43;;;;;;;;;;;;;;;;;;5066022;28;19918;-81
2022/07/03 15:03:30;;;;;;;;;;;;;;;;;;5066972;28;19920;-80
2022/07/03 15:06:16;;;;;;;;;;;;;;;;;;5064893;28;19968;-81
2022/07/03 15:09:03;;;;;;;;;;;;;;;;;;5056010;28;20400;-81
2022/07/03 15:14:55;;;;;;;;;;;;;;;;;;5070341;28;20337;-78
2022/07/03 15:17:41;;;;;;;;;;;;;;;;;;5062198;28;19923;-79
2022/07/03 15:20:28;;;;;;;;;;;;;;;;;;5071857;28;19915;-79
2022/07/03 15:23:14;;;;;;;;;;;;;;;;;;5060384;28;19935;-78
2022/07/03 15:26:01;;;;;;;;;;;;;;;;;;5067903;28;19934;-78
2022/07/03 15:28:47;;;;;;;;;;;;;;;;;;5050420;28;19912;-78
2022/07/03 15:31:33;;;;;;;;;;;;;;;;;;5081164;28;19924;-78
2022/07/03 15:34:20;;;;;;;;;;;;;;;;;;5067607;28;19950;-80
2022/07/03 15:37:06;;;;;;;;;;;;;;;;;;5069122;28;19923;-78
2022/07/03 15:39:53;;;;;;;;;;;;;;;;;;5048919;28;19913;-78
2022/07/03 15:42:39;;;;;;;;;;;;;;;;;;5060716;28;19908;-76
2022/07/03 15:45:26;;;;;;;;;;;;;;;;;;5060060;28;19909;-82
2022/07/03 15:48:12;;;;;;;;;;;;;;;;;;5061755;28;19920;-80
2022/07/03 15:50:59;;;;;;;;;;;;;;;;;;5058192;28;20737;-80
2022/07/03 15:53:46;;;;;;;;;;;;;;;;;;5058825;28;20413;-80
2022/07/03 15:56:32;;;;;;;;;;;;;;;;;;5062393;28;19975;-78
2022/07/03 15:59:19;;;;;;;;;;;;;;;;;;5065927;28;19909;-76
2022/07/03 16:02:16;;;;;;;;;;;;;;;;;;5042166;28;20489;-76
2022/07/03 16:05:03;;;;;;;;;;;;;;;;;;5068146;28;19915;-76
2022/07/03 16:07:50;;;;;;;;;;;;;;;;;;5068682;28;19920;-76
2022/07/03 16:10:36;;;;;;;;;;;;;;;;;;5062221;28;19919;-76
2022/07/03 16:13:23;;;;;;;;;;;;;;;;;;5041105;28;19908;-76
2022/07/03 16:16:10;;;;;;;;;;;;;;;;;;5044879;28;19921;-76
2022/07/03 16:18:56;;;;;;;;;;;;;;;;;;5064956;28;19908;-76
2022/07/03 16:21:43;;;;;;;;;;;;;;;;;;5056599;28;19943;-76
2022/07/03 16:24:29;;;;;;;;;;;;;;;;;;5056062;28;19915;-76
2022/07/03 16:27:16;;;;;;;;;;;;;;;;;;5057676;28;19916;-76
2022/07/03 16:30:02;;;;;;;;;;;;;;;;;;5053221;28;20289;-76
2022/07/03 16:32:49;;;;;;;;;;;;;;;;;;5055675;28;19909;-76
2022/07/03 16:35:35;;;;;;;;;;;;;;;;;;5060634;28;20001;-79
2022/07/03 16:38:22;;;;;;;;;;;;;;;;;;5060612;28;19935;-77
2022/07/03 16:41:08;;;;;;;;;;;;;;;;;;5066739;28;19916;-76
2022/07/03 16:43:55;;;;;;;;;;;;;;;;;;5068585;28;19931;-76
2022/07/03 16:46:42;;;;;;;;;;;;;;;;;;5058414;28;19913;-76
2022/07/03 16:49:28;;;;;;;;;;;;;;;;;;5063880;28;19909;-76
2022/07/03 16:52:15;;;;;;;;;;;;;;;;;;5056219;28;20364;-76
2022/07/03 16:55:01;;;;;;;;;;;;;;;;;;5058431;28;19923;-76
2022/07/03 16:57:48;;;;;;;;;;;;;;;;;;5058535;28;19916;-77
2022/07/03 17:00:34;;;;;;;;;;;;;;;;;;5063629;28;19916;-77
2022/07/03 17:03:21;;;;;;;;;;;;;;;;;;5068180;28;20463;-77
2022/07/03 17:06:07;;;;;;;;;;;;;;;;;;5051492;28;19913;-74
2022/07/03 17:08:54;;;;;;;;;;;;;;;;;;5069819;28;19927;-75
2022/07/03 17:11:41;;;;;;;;;;;;;;;;;;5058803;28;20364;-80
2022/07/03 17:14:27;;;;;;;;;;;;;;;;;;5061720;28;19912;-75
2022/07/03 17:17:14;;;;;;;;;;;;;;;;;;5041623;28;19920;-76
2022/07/03 17:20:00;;;;;;;;;;;;;;;;;;5054684;28;19908;-74
2022/07/03 17:22:47;;;;;;;;;;;;;;;;;;5047298;28;19912;-77
2022/07/03 17:25:34;;;;;;;;;;;;;;;;;;5049472;28;19915;-75
2022/07/03 17:28:20;;;;;;;;;;;;;;;;;;5056142;28;19920;-74
2022/07/03 17:31:07;;;;;;;;;;;;;;;;;;5044052;28;19917;-74
2022/07/03 17:33:53;;;;;;;;;;;;;;;;;;5059263;28;19909;-74
2022/07/03 17:36:40;;;;;;;;;;;;;;;;;;5056839;28;19920;-74
2022/07/03 17:39:27;;;;;;;;;;;;;;;;;;5063589;28;19908;-79
2022/07/03 17:42:13;;;;;;;;;;;;;;;;;;5057080;28;19908;-78
2022/07/03 17:45:00;;;;;;;;;;;;;;;;;;5067932;28;20135;-76
2022/07/03 17:47:47;;;;;;;;;;;;;;;;;;5061681;28;19912;-79
2022/07/03 17:50:33;;;;;;;;;;;;;;;;;;5052084;28;19909;-78
2022/07/03 17:53:20;;;;;;;;;;;;;;;;;;5061738;28;19913;-80
2022/07/03 17:56:07;;;;;;;;;;;;;;;;;;5051381;28;20300;-78
2022/07/03 17:58:54;;;;;;;;;;;;;;;;;;5049114;28;19915;-81
2022/07/03 18:01:40;;;;;;;;;;;;;;;;;;5061561;28;19909;-82
2022/07/03 18:04:27;;;;;;;;;;;;;;;;;;5055535;28;19909;-82
2022/07/03 18:07:13;;;;;;;;;;;;;;;;;;5041092;28;20316;-82
2022/07/03 18:10:00;;;;;;;;;;;;;;;;;;5053411;28;19912;-79
2022/07/03 18:12:46;;;;;;;;;;;;;;;;;;5051125;28;20583;-80
2022/07/03 18:15:33;;;;;;;;;;;;;;;;;;5057157;28;19916;-79
2022/07/03 18:18:19;;;;;;;;;;;;;;;;;;5061878;28;20799;-81
2022/07/03 18:21:06;;;;;;;;;;;;;;;;;;5060076;28;19916;-80
2022/07/03 18:23:52;;;;;;;;;;;;;;;;;;5044443;28;19909;-79
2022/07/03 18:26:40;;;;;;;;;;;;;;;;;;5056890;28;19912;-80
2022/07/03 18:29:26;;;;;;;;;;;;;;;;;;5067303;28;19912;-82
2022/07/03 18:32:13;;;;;;;;;;;;;;;;;;5067749;28;19931;-80
2022/07/03 18:34:59;;;;;;;;;;;;;;;;;;5070383;28;19915;-79
2022/07/03 18:37:46;;;;;;;;;;;;;;;;;;5069478;28;20474;-80
2022/07/03 18:40:33;;;;;;;;;;;;;;;;;;5067153;28;19915;-81
2022/07/03 18:43:20;;;;;;;;;;;;;;;;;;5048619;28;19936;-80
2022/07/03 18:46:06;;;;;;;;;;;;;;;;;;5062573;28;20288;-81
2022/07/03 18:48:53;;;;;;;;;;;;;;;;;;5060864;28;19913;-81
2022/07/03 18:51:39;;;;;;;;;;;;;;;;;;5063785;28;19936;-80
2022/07/03 18:54:26;;;;;;;;;;;;;;;;;;5072683;28;19908;-80
2022/07/03 18:57:13;;;;;;;;;;;;;;;;;;5043945;28;19917;-80
2022/07/03 18:59:59;;;;;;;;;;;;;;;;;;5062133;28;19912;-79
2022/07/03 19:02:49;;;;;;;;;;;;;;;;;;5067827;28;20559;-79
2022/07/03 19:05:36;;;;;;;;;;;;;;;;;;5064704;28;19913;-85
2022/07/03 19:08:22;;;;;;;;;;;;;;;;;;5060197;28;20281;-79
2022/07/03 19:11:09;;;;;;;;;;;;;;;;;;5070758;28;19920;-80
2022/07/03 19:13:55;;;;;;;;;;;;;;;;;;5065341;28;20276;-79
2022/07/03 19:16:42;;;;;;;;;;;;;;;;;;5057563;28;19924;-79
2022/07/03 19:19:28;;;;;;;;;;;;;;;;;;5064374;28;19916;-81
2022/07/03 19:22:15;;;;;;;;;;;;;;;;;;5055115;28;19913;-79
2022/07/03 19:25:01;;;;;;;;;;;;;;;;;;5059506;28;19950;-79
2022/07/03 19:27:48;;;;;;;;;;;;;;;;;;5054277;28;20360;-77